createdAt,value
2022-09-30T00:02:14.789Z,9.73
2022-09-30T00:04:41.396Z,9.57
2022-09-30T00:07:07.907Z,11.33
2022-09-30T00:09:34.472Z,9.40
2022-09-30T00:12:01.391Z,9.43
2022-09-30T00:14:27.961Z,9.90
2022-09-30T00:16:54.472Z,9.30
2022-09-30T00:19:21.065Z,8.90
2022-09-30T00:21:47.897Z,7.77
2022-09-30T00:24:14.735Z,7.60
2022-09-30T00:26:41.227Z,8.83
2022-09-30T00:29:07.952Z,8.20
2022-09-30T00:31:35.243Z,8.00
2022-09-30T00:34:08.926Z,9.00
2022-09-30T00:37:05.284Z,8.00
2022-09-30T00:39:31.703Z,8.00
2022-09-30T00:42:03.620Z,7.70
2022-09-30T00:44:53.369Z,8.90
2022-09-30T00:47:33.713Z,8.70
2022-09-30T00:50:05.779Z,8.90
2022-09-30T00:52:33.313Z,7.87
2022-09-30T00:55:02.100Z,8.50
2022-09-30T00:57:29.549Z,7.97
2022-09-30T00:59:56.146Z,7.17
2022-09-30T01:02:23.502Z,7.30
2022-09-30T01:04:50.241Z,7.93
2022-09-30T01:07:17.728Z,6.73
2022-09-30T01:09:44.825Z,7.53
2022-09-30T01:12:17.434Z,6.50
2022-09-30T01:14:45.087Z,9.93
2022-09-30T01:17:27.644Z,7.63
2022-09-30T01:20:31.630Z,8.10
2022-09-30T01:23:22.534Z,7.60
2022-09-30T01:25:53.488Z,8.23
2022-09-30T01:28:45.369Z,6.20
2022-09-30T01:31:22.374Z,5.83
2022-09-30T01:33:48.928Z,6.60
2022-09-30T01:36:28.016Z,5.80
2022-09-30T01:38:56.329Z,7.37
2022-09-30T01:41:31.312Z,8.60
2022-09-30T01:44:04.849Z,8.13
2022-09-30T01:46:44.587Z,8.70
2022-09-30T01:49:20.444Z,7.77
2022-09-30T01:51:57.625Z,8.70
2022-09-30T01:54:24.058Z,9.33
2022-09-30T01:57:18.002Z,10.10
2022-09-30T01:59:48.270Z,9.00
2022-09-30T02:02:29.624Z,10.10
2022-09-30T02:05:01.525Z,9.60
2022-09-30T02:07:39.327Z,9.17
2022-09-30T02:10:25.800Z,8.97
2022-09-30T02:13:05.158Z,8.03
2022-09-30T02:15:40.390Z,7.97
2022-09-30T02:18:37.161Z,8.77
2022-09-30T02:21:05.478Z,9.40
2022-09-30T02:23:33.978Z,9.70
2022-09-30T02:26:27.089Z,9.17
2022-09-30T02:29:05.702Z,8.10
2022-09-30T02:31:35.010Z,8.20
2022-09-30T02:34:29.142Z,8.00
2022-09-30T02:37:05.805Z,7.40
2022-09-30T02:39:46.399Z,7.80
2022-09-30T02:42:22.613Z,8.40
2022-09-30T02:44:51.160Z,8.23
2022-09-30T02:47:29.156Z,6.80
2022-09-30T02:50:23.850Z,7.87
2022-09-30T02:53:00.724Z,7.33
2022-09-30T02:55:55.800Z,8.07
2022-09-30T02:58:26.138Z,7.83
2022-09-30T03:00:54.500Z,7.47
2022-09-30T03:03:37.622Z,7.90
2022-09-30T03:06:04.367Z,7.00
2022-09-30T03:08:31.079Z,8.60
2022-09-30T03:10:57.584Z,7.63
2022-09-30T03:14:01.835Z,8.00
2022-09-30T03:17:02.135Z,10.90
2022-09-30T03:19:46.708Z,7.77
2022-09-30T03:22:40.523Z,7.67
2022-09-30T03:25:41.322Z,9.93
2022-09-30T03:28:15.071Z,6.53
2022-09-30T03:30:58.228Z,7.30
2022-09-30T03:34:01.760Z,5.87
2022-09-30T03:36:36.745Z,7.27
2022-09-30T03:39:23.974Z,6.23
2022-09-30T03:41:55.740Z,7.60
2022-09-30T03:44:26.218Z,5.67
2022-09-30T03:46:56.705Z,8.13
2022-09-30T03:49:29.709Z,6.97
2022-09-30T03:51:58.745Z,8.83
2022-09-30T03:54:25.586Z,7.30
2022-09-30T03:56:52.135Z,7.90
2022-09-30T03:59:30.240Z,6.60
2022-09-30T04:01:57.633Z,7.37
2022-09-30T04:04:24.247Z,7.37
2022-09-30T04:06:51.038Z,5.90
2022-09-30T04:09:17.599Z,7.33
2022-09-30T04:11:44.193Z,7.03
2022-09-30T04:14:10.680Z,7.90
2022-09-30T04:16:37.567Z,7.20
2022-09-30T04:19:04.084Z,7.73
2022-09-30T04:21:31.040Z,7.00
2022-09-30T04:23:57.587Z,7.33
2022-09-30T04:26:24.004Z,7.83
2022-09-30T04:28:51.560Z,8.20
2022-09-30T04:34:15.473Z,6.97
2022-09-30T04:36:41.990Z,7.57
2022-09-30T04:39:08.476Z,9.43
2022-09-30T04:41:35.053Z,7.80
2022-09-30T04:44:06.180Z,7.43
2022-09-30T04:46:34.667Z,7.63
2022-09-30T04:49:01.951Z,6.97
2022-09-30T04:51:30.227Z,7.37
2022-09-30T04:53:56.721Z,7.90
2022-09-30T04:56:24.478Z,7.87
2022-09-30T04:58:52.048Z,8.07
2022-09-30T05:01:19.123Z,7.83
2022-09-30T05:03:45.849Z,7.83
2022-09-30T05:06:13.088Z,7.60
2022-09-30T05:08:44.725Z,7.97
2022-09-30T05:11:17.410Z,9.37
2022-09-30T05:13:44.590Z,8.00
2022-09-30T05:16:11.725Z,7.57
2022-09-30T05:18:39.584Z,9.57
2022-09-30T05:21:06.288Z,7.93
2022-09-30T05:23:33.350Z,8.70
2022-09-30T05:26:01.667Z,7.40
2022-09-30T05:28:29.247Z,7.00
2022-09-30T05:31:01.656Z,7.37
2022-09-30T05:33:32.562Z,7.60
2022-09-30T05:36:01.346Z,6.70
2022-09-30T05:38:28.128Z,7.23
2022-09-30T05:40:54.677Z,7.27
2022-09-30T05:43:21.406Z,9.50
2022-09-30T05:45:57.333Z,9.37
2022-09-30T05:48:25.550Z,9.40
2022-09-30T05:50:56.348Z,8.47
2022-09-30T05:53:23.648Z,9.87
2022-09-30T05:55:51.075Z,10.17
2022-09-30T05:58:19.065Z,9.23
2022-09-30T06:00:47.123Z,9.27
2022-09-30T06:03:14.511Z,8.40
2022-09-30T06:05:41.071Z,9.43
2022-09-30T06:08:07.910Z,8.17
2022-09-30T06:10:35.521Z,8.53
2022-09-30T06:13:05.276Z,9.67
2022-09-30T06:15:32.291Z,10.33
2022-09-30T06:17:58.787Z,10.33
2022-09-30T06:20:25.707Z,10.07
2022-09-30T06:22:52.491Z,10.70
2022-09-30T06:25:19.081Z,9.87
2022-09-30T06:27:47.089Z,13.13
2022-09-30T06:30:14.580Z,12.53
2022-09-30T06:32:41.517Z,9.80
2022-09-30T06:35:08.757Z,11.73
2022-09-30T06:37:37.275Z,10.80
2022-09-30T06:40:06.181Z,11.47
2022-09-30T06:42:32.731Z,11.87
2022-09-30T06:44:59.611Z,11.87
2022-09-30T06:47:26.659Z,11.80
2022-09-30T06:49:54.638Z,12.90
2022-09-30T06:52:21.804Z,13.33
2022-09-30T06:54:49.802Z,12.23
2022-09-30T06:57:16.701Z,11.67
2022-09-30T06:59:45.771Z,14.27
2022-09-30T07:02:12.716Z,12.83
2022-09-30T07:04:39.201Z,12.97
2022-09-30T07:07:06.963Z,13.30
2022-09-30T07:09:33.686Z,13.80
2022-09-30T07:12:00.179Z,12.93
2022-09-30T07:14:26.840Z,11.00
2022-09-30T07:16:53.752Z,11.97
2022-09-30T07:19:23.145Z,12.30
2022-09-30T07:21:50.296Z,14.13
2022-09-30T07:24:17.860Z,15.50
2022-09-30T07:26:47.147Z,14.57
2022-09-30T07:29:14.013Z,12.50
2022-09-30T07:31:41.070Z,12.80
2022-09-30T07:34:08.870Z,12.47
2022-09-30T07:36:37.986Z,11.53
2022-09-30T07:39:07.223Z,12.00
2022-09-30T07:41:35.902Z,11.83
2022-09-30T07:44:02.924Z,12.50
2022-09-30T07:46:31.936Z,11.77
2022-09-30T07:49:05.652Z,11.63
2022-09-30T07:51:34.885Z,11.23
2022-09-30T07:54:06.339Z,11.03
2022-09-30T07:56:51.150Z,10.60
2022-09-30T07:59:20.429Z,12.60
2022-09-30T08:01:47.302Z,11.07
2022-09-30T08:04:15.219Z,9.90
2022-09-30T08:06:48.370Z,9.40
2022-09-30T08:09:17.207Z,8.50
2022-09-30T08:11:44.284Z,9.77
2022-09-30T08:14:21.955Z,9.80
2022-09-30T08:16:48.783Z,8.77
2022-09-30T08:19:21.510Z,9.10
2022-09-30T08:21:48.333Z,8.37
2022-09-30T08:24:15.206Z,10.20
2022-09-30T08:26:42.268Z,9.57
2022-09-30T08:29:16.963Z,7.40
2022-09-30T08:31:47.817Z,9.60
2022-09-30T08:34:14.704Z,7.60
2022-09-30T08:36:41.498Z,9.47
2022-09-30T08:39:08.053Z,8.80
2022-09-30T08:41:44.278Z,9.17
2022-09-30T08:44:30.965Z,8.40
2022-09-30T08:47:02.280Z,8.70
2022-09-30T08:49:48.946Z,8.20
2022-09-30T08:52:30.739Z,6.73
2022-09-30T08:55:04.748Z,7.17
2022-09-30T08:57:47.146Z,6.23
2022-09-30T09:00:16.930Z,6.13
2022-09-30T09:02:52.278Z,5.90
2022-09-30T09:05:49.905Z,4.93
2022-09-30T09:08:43.633Z,5.10
2022-09-30T09:11:41.188Z,6.03
2022-09-30T09:14:31.843Z,6.50
2022-09-30T09:17:16.820Z,6.50
2022-09-30T09:19:51.506Z,5.30
2022-09-30T09:22:21.250Z,5.13
2022-09-30T09:24:51.390Z,4.80
2022-09-30T09:27:26.471Z,5.40
2022-09-30T09:30:06.350Z,5.40
2022-09-30T09:32:33.120Z,6.10
2022-09-30T09:35:02.659Z,4.83
2022-09-30T09:37:51.358Z,5.20
2022-09-30T09:40:23.927Z,5.27
2022-09-30T09:43:26.163Z,5.20
2022-09-30T09:46:17.319Z,5.47
2022-09-30T09:48:44.891Z,4.53
2022-09-30T09:51:14.409Z,4.80
2022-09-30T09:53:52.307Z,5.60
2022-09-30T09:56:29.731Z,5.60
2022-09-30T09:59:06.218Z,5.43
2022-09-30T10:01:34.171Z,5.17
2022-09-30T10:04:12.283Z,5.70
2022-09-30T10:06:47.550Z,8.90
2022-09-30T10:09:30.625Z,4.90
2022-09-30T10:12:06.126Z,4.50
2022-09-30T10:14:46.585Z,5.67
2022-09-30T10:17:29.483Z,4.40
2022-09-30T10:20:01.147Z,3.53
2022-09-30T10:22:32.341Z,4.13
2022-09-30T10:25:14.048Z,3.10
2022-09-30T10:27:56.216Z,3.30
2022-09-30T10:30:36.291Z,3.07
2022-09-30T10:33:04.321Z,2.60
2022-09-30T10:35:31.266Z,2.63
2022-09-30T10:37:59.695Z,2.20
2022-09-30T10:40:30.372Z,2.57
2022-09-30T10:42:57.690Z,2.30
2022-09-30T10:45:33.421Z,2.40
2022-09-30T10:48:03.999Z,1.73
2022-09-30T10:50:30.748Z,2.60
2022-09-30T10:53:00.090Z,2.30
2022-09-30T10:55:42.040Z,2.30
2022-09-30T10:58:45.714Z,3.83
2022-09-30T11:01:21.136Z,3.23
2022-09-30T11:04:08.562Z,2.73
2022-09-30T11:06:39.389Z,2.60
2022-09-30T11:09:20.505Z,3.40
2022-09-30T11:12:01.025Z,2.60
2022-09-30T11:14:27.602Z,2.80
2022-09-30T11:17:11.539Z,2.33
2022-09-30T11:20:12.464Z,2.80
2022-09-30T11:22:43.290Z,2.77
2022-09-30T11:25:15.769Z,3.90
2022-09-30T11:27:58.476Z,3.03
2022-09-30T11:30:54.330Z,3.93
2022-09-30T11:33:42.067Z,3.30
2022-09-30T11:36:32.385Z,3.40
2022-09-30T11:39:14.300Z,4.17
2022-09-30T11:41:50.865Z,4.53
2022-09-30T11:44:23.347Z,3.50
2022-09-30T11:47:14.730Z,3.23
2022-09-30T11:49:41.257Z,3.53
2022-09-30T11:52:11.802Z,3.10
2022-09-30T11:54:56.825Z,3.90
2022-09-30T11:57:25.096Z,3.40
2022-09-30T11:59:53.167Z,2.70
2022-09-30T12:02:34.566Z,3.10
2022-09-30T12:05:07.342Z,3.70
2022-09-30T12:07:57.621Z,3.70
2022-09-30T12:10:34.641Z,4.03
2022-09-30T12:13:14.646Z,3.83
2022-09-30T12:15:43.516Z,3.97
2022-09-30T12:18:32.190Z,3.40
2022-09-30T12:21:20.654Z,3.70
2022-09-30T12:23:58.290Z,3.40
2022-09-30T12:26:25.333Z,3.00
2022-09-30T12:29:17.664Z,5.27
2022-09-30T12:31:58.377Z,3.10
2022-09-30T12:34:48.535Z,3.60
2022-09-30T12:37:43.677Z,2.77
2022-09-30T12:40:31.943Z,2.80
2022-09-30T12:43:28.143Z,3.10
2022-09-30T12:46:24.913Z,3.77
2022-09-30T12:48:56.054Z,3.30
2022-09-30T12:51:36.304Z,3.13
2022-09-30T12:54:13.886Z,3.80
2022-09-30T12:56:43.175Z,3.90
2022-09-30T12:59:10.554Z,3.63
2022-09-30T13:01:37.800Z,3.70
2022-09-30T13:04:04.392Z,3.27
2022-09-30T13:06:46.101Z,3.97
2022-09-30T13:09:35.066Z,2.80
2022-09-30T13:12:01.535Z,3.00
2022-09-30T13:14:34.879Z,2.80
2022-09-30T13:17:07.052Z,3.20
2022-09-30T13:19:51.302Z,3.27
2022-09-30T13:22:20.980Z,2.90
2022-09-30T13:25:05.462Z,3.00
2022-09-30T13:27:51.838Z,3.10
2022-09-30T13:30:18.378Z,3.17
2022-09-30T13:32:52.243Z,3.63
2022-09-30T13:35:41.763Z,3.10
2022-09-30T13:38:14.250Z,3.83
2022-09-30T13:41:05.600Z,4.80
2022-09-30T13:43:43.027Z,3.77
2022-09-30T13:46:31.503Z,3.80
2022-09-30T13:49:15.309Z,3.43
2022-09-30T13:51:42.392Z,3.67
2022-09-30T13:54:40.273Z,3.53
2022-09-30T13:57:07.444Z,3.67
2022-09-30T14:00:00.220Z,4.40
2022-09-30T14:02:52.382Z,4.83
2022-09-30T14:05:42.154Z,3.50
2022-09-30T14:08:35.952Z,8.70
2022-09-30T14:11:05.211Z,11.70
2022-09-30T14:13:41.885Z,17.60
2022-09-30T14:16:20.297Z,8.57
2022-09-30T14:19:24.009Z,6.47
2022-09-30T14:21:55.608Z,5.90
2022-09-30T14:24:27.287Z,17.17
2022-09-30T14:27:07.527Z,8.20
2022-09-30T14:29:43.440Z,13.83
2022-09-30T14:32:29.934Z,8.17
2022-09-30T14:37:46.046Z,6.70
2022-09-30T14:40:18.088Z,5.83
2022-09-30T14:42:46.824Z,22.90
2022-09-30T14:45:27.028Z,11.27
2022-09-30T14:47:56.732Z,14.63
2022-09-30T14:50:26.198Z,38.63
2022-09-30T14:53:00.615Z,48.00
2022-09-30T14:55:34.184Z,5.77
2022-09-30T14:58:19.273Z,9.27
2022-09-30T15:00:49.355Z,16.07
2022-09-30T15:03:16.075Z,14.10
2022-09-30T15:05:42.509Z,20.13
2022-09-30T15:08:15.557Z,7.53
2022-09-30T15:10:47.602Z,9.10
2022-09-30T15:13:15.059Z,11.73
2022-09-30T15:15:41.720Z,12.80
2022-09-30T15:18:28.012Z,11.20
2022-09-30T15:20:56.859Z,15.00
2022-09-30T15:23:26.885Z,7.40
2022-09-30T15:25:53.923Z,26.13
2022-09-30T15:28:20.499Z,20.00
2022-09-30T15:30:47.097Z,13.80
2022-09-30T15:33:18.537Z,5.33
2022-09-30T15:35:45.796Z,4.70
2022-09-30T15:38:14.981Z,4.40
2022-09-30T15:40:50.337Z,6.00
2022-09-30T15:43:33.003Z,9.50
2022-09-30T15:46:16.777Z,12.67
2022-09-30T15:48:47.301Z,14.40
2022-09-30T15:51:25.003Z,11.40
2022-09-30T15:53:52.110Z,4.63
2022-09-30T15:56:35.522Z,5.13
2022-09-30T15:59:07.858Z,4.60
2022-09-30T16:01:48.577Z,5.70
2022-09-30T16:04:15.393Z,5.40
2022-09-30T16:06:42.115Z,4.07
2022-09-30T16:09:26.339Z,4.33
2022-09-30T16:12:03.153Z,4.60
2022-09-30T16:14:45.019Z,4.07
2022-09-30T16:17:29.860Z,4.73
2022-09-30T16:19:58.659Z,3.90
2022-09-30T16:22:40.461Z,4.30
2022-09-30T16:25:18.156Z,4.53
2022-09-30T16:27:45.222Z,4.20
2022-09-30T16:30:16.983Z,4.20
2022-09-30T16:32:45.883Z,3.43
2022-09-30T16:35:26.939Z,5.70
2022-09-30T16:38:04.829Z,6.23
2022-09-30T16:40:32.808Z,8.27
2022-09-30T16:43:00.022Z,8.10
2022-09-30T16:45:28.856Z,7.33
2022-09-30T16:47:57.021Z,6.60
2022-09-30T16:50:39.786Z,7.80
2022-09-30T16:53:06.284Z,5.60
2022-09-30T16:55:32.826Z,4.00
2022-09-30T16:57:59.971Z,5.80
2022-09-30T17:00:28.117Z,3.57
2022-09-30T17:02:55.031Z,3.73
2022-09-30T17:05:23.782Z,4.03
2022-09-30T17:07:58.763Z,3.40
2022-09-30T17:10:31.174Z,3.43
2022-09-30T17:13:03.611Z,4.50
2022-09-30T17:15:32.523Z,3.63
2022-09-30T17:20:35.091Z,4.90
2022-09-30T17:23:06.295Z,4.13
2022-09-30T17:25:34.673Z,5.50
2022-09-30T17:28:01.894Z,8.17
2022-09-30T17:30:28.407Z,9.67
2022-09-30T17:32:54.877Z,11.30
2022-09-30T17:35:22.591Z,14.80
2022-09-30T17:37:49.557Z,17.37
2022-09-30T17:40:34.936Z,17.50
2022-09-30T17:43:07.355Z,13.97
2022-09-30T17:45:38.659Z,11.37
2022-09-30T17:48:07.890Z,8.93
2022-09-30T17:50:42.361Z,8.53
2022-09-30T17:53:09.327Z,6.27
2022-09-30T17:55:36.097Z,7.10
2022-09-30T17:58:03.278Z,6.50
2022-09-30T18:00:31.056Z,5.83
2022-09-30T18:02:57.818Z,3.90
2022-09-30T18:05:25.780Z,5.27
2022-09-30T18:07:52.465Z,3.87
2022-09-30T18:10:19.474Z,3.87
2022-09-30T18:12:49.307Z,3.70
2022-09-30T18:15:16.885Z,3.50
2022-09-30T18:17:43.568Z,4.20
2022-09-30T18:20:11.490Z,3.53
2022-09-30T18:22:38.151Z,4.37
2022-09-30T18:25:20.037Z,5.00
2022-09-30T18:27:56.543Z,4.10
2022-09-30T18:30:24.157Z,4.50
2022-09-30T18:32:52.342Z,4.53
2022-09-30T18:35:20.689Z,4.60
2022-09-30T18:37:49.761Z,6.57
2022-09-30T18:40:18.225Z,4.97
2022-09-30T18:42:45.347Z,6.30
2022-09-30T18:45:12.806Z,5.90
2022-09-30T18:47:43.962Z,5.13
2022-09-30T18:50:12.526Z,4.00
2022-09-30T18:52:40.775Z,5.97
2022-09-30T18:55:09.597Z,7.90
2022-09-30T18:57:36.230Z,8.33
2022-09-30T19:00:02.941Z,7.77
2022-09-30T19:02:29.812Z,10.33
2022-09-30T19:04:59.996Z,10.30
2022-09-30T19:07:27.005Z,10.20
2022-09-30T19:09:53.580Z,10.33
2022-09-30T19:12:20.665Z,10.33
2022-09-30T19:14:47.929Z,9.17
2022-09-30T19:17:14.757Z,9.13
2022-09-30T19:19:41.328Z,8.60
2022-09-30T19:22:08.327Z,9.40
2022-09-30T19:28:27.274Z,8.67
2022-09-30T19:30:53.743Z,8.00
2022-09-30T19:33:25.260Z,8.13
2022-09-30T19:36:14.004Z,7.40
2022-09-30T19:38:42.665Z,5.53
2022-09-30T19:41:09.863Z,5.90
2022-09-30T19:43:37.255Z,5.53
2022-09-30T19:46:04.927Z,5.90
2022-09-30T19:48:32.665Z,5.93
2022-09-30T19:51:02.641Z,5.63
2022-09-30T19:54:02.800Z,6.00
2022-09-30T19:56:32.462Z,5.13
2022-09-30T19:59:00.159Z,6.70
2022-09-30T20:01:31.361Z,6.20
2022-09-30T20:04:00.230Z,7.20
2022-09-30T20:06:28.113Z,6.63
2022-09-30T20:09:00.440Z,9.80
2022-09-30T20:11:29.752Z,9.00
2022-09-30T20:14:15.105Z,11.70
2022-09-30T20:16:43.557Z,10.47
2022-09-30T20:19:11.322Z,7.90
2022-09-30T20:21:38.669Z,7.90
2022-09-30T20:24:05.702Z,7.80
2022-09-30T20:26:34.281Z,6.03
2022-09-30T20:29:01.169Z,6.77
2022-09-30T20:31:28.576Z,6.77
2022-09-30T20:33:56.186Z,6.83
2022-09-30T20:36:22.727Z,6.83
2022-09-30T20:39:00.452Z,6.70
2022-09-30T20:41:27.496Z,7.60
2022-09-30T20:43:54.093Z,6.87
2022-09-30T20:46:21.865Z,7.70
2022-09-30T20:48:49.038Z,7.23
2022-09-30T20:51:18.210Z,8.00
2022-09-30T20:53:49.187Z,6.43
2022-09-30T20:56:15.672Z,7.03
2022-09-30T20:58:42.276Z,7.43
2022-09-30T21:01:14.043Z,8.07
2022-09-30T21:03:41.313Z,7.33
2022-09-30T21:06:12.576Z,7.63
2022-09-30T21:08:40.522Z,8.40
2022-09-30T21:11:08.203Z,7.07
2022-09-30T21:13:35.568Z,7.33
2022-09-30T21:16:04.229Z,8.20
2022-09-30T21:18:31.415Z,7.17
2022-09-30T21:20:58.970Z,6.70
2022-09-30T21:23:26.425Z,6.50
2022-09-30T21:26:00.240Z,7.40
2022-09-30T21:28:27.255Z,6.70
2022-09-30T21:30:53.939Z,6.47
2022-09-30T21:33:20.773Z,5.87
2022-09-30T21:35:47.331Z,6.77
2022-09-30T21:38:17.651Z,5.90
2022-09-30T21:40:46.066Z,6.90
2022-09-30T21:43:12.692Z,6.07
2022-09-30T21:45:39.373Z,6.30
2022-09-30T21:48:07.136Z,7.93
2022-09-30T21:50:34.932Z,6.73
2022-09-30T21:53:01.377Z,5.73
2022-09-30T21:55:28.448Z,5.37
2022-09-30T21:57:54.997Z,5.90
2022-09-30T22:00:21.535Z,6.00
2022-09-30T22:02:48.578Z,6.97
2022-09-30T22:05:20.428Z,6.17
2022-09-30T22:07:47.867Z,7.10
2022-09-30T22:10:14.464Z,6.50
2022-09-30T22:12:40.981Z,7.00
2022-09-30T22:15:07.756Z,6.90
2022-09-30T22:17:34.319Z,4.60
2022-09-30T22:20:01.209Z,4.73
2022-09-30T22:22:27.656Z,5.50
2022-09-30T22:24:54.207Z,5.03
2022-09-30T22:27:20.905Z,6.80
2022-09-30T22:29:48.896Z,7.80
2022-09-30T22:32:15.579Z,8.23
2022-09-30T22:35:01.159Z,7.87
2022-09-30T22:37:46.000Z,7.70
2022-09-30T22:40:12.434Z,6.70
2022-09-30T22:42:39.625Z,7.90
2022-09-30T22:45:06.612Z,7.37
2022-09-30T22:47:33.167Z,7.33
2022-09-30T22:49:59.575Z,7.67
2022-09-30T22:52:26.082Z,5.90
2022-09-30T22:54:53.801Z,5.73
2022-09-30T22:57:20.877Z,5.77
2022-09-30T22:59:47.673Z,4.50
2022-09-30T23:02:14.661Z,5.93
2022-09-30T23:04:43.414Z,6.10
2022-09-30T23:07:10.338Z,6.07
2022-09-30T23:09:36.844Z,6.30
2022-09-30T23:12:03.453Z,5.30
2022-09-30T23:14:30.143Z,5.97
2022-09-30T23:16:56.613Z,6.30
2022-09-30T23:19:23.150Z,5.40
2022-09-30T23:21:49.621Z,4.90
2022-09-30T23:24:16.164Z,4.80
2022-09-30T23:26:43.458Z,5.93
2022-09-30T23:29:14.049Z,5.37
2022-09-30T23:31:40.898Z,5.90
2022-09-30T23:34:07.842Z,5.67
2022-09-30T23:36:36.578Z,5.60
2022-09-30T23:39:08.313Z,7.07
2022-09-30T23:41:35.418Z,6.10
2022-09-30T23:44:02.239Z,5.47
2022-09-30T23:46:28.687Z,6.20
2022-09-30T23:48:55.226Z,6.30
2022-09-30T23:51:21.752Z,6.03
2022-09-30T23:53:48.201Z,6.17
2022-09-30T23:56:17.132Z,6.33
2022-09-30T23:58:44.960Z,6.33
